LHBP 230200Z 30014KT 9999 SCT017 BKN110 13/12 Q1011 NOSIG        

LHDC 230145Z AUTO 23008KT 200V260 9000 BKN010 OVC028 13/12 Q1009        

LHKE 230145Z 29014KT 9999 BKN040 13/10 Q1011 NOSIG RMK BLU        

LHPA 230145Z 32010KT 290V350 9999 BKN030 OVC083 13/11 Q1014 NOSIG RMK BLU        

LHPR 230145Z AUTO 29011KT 9999 FEW024 BKN054 13/11 Q1014        

LHSM 230145Z AUTO 33005KT 9999 -SHRA NSC 15/11 Q1015        

LHSN 230145Z 28010KT 250V310 CAVOK 12/10 Q1010 NOSIG RMK BLU        

LHUD 222345Z 27013KT 9999 -RA BKN026 BKN040 15/11 Q1013